• pl
  • eng

Awiacja
TAF FC 01:00 01.01.1970

TAF EPLB 211430Z 2115/2124 20010KT CAVOK=

TAF EPRA 211430Z 2115/2124 18010KT CAVOK=

TAF EPSY 211430Z 2115/2124 18010KT CAVOK
PROB30 TEMPO 2115/2119 18015G25KT=
Awiacja.imgw.pl jest pogodowym serwisem informacyjnym
Instytutu Meteorologii i Gospodarki Wodnej Państwowego Instytutu Badawczego.
Copyright IMGW PIB 2009-2011© Wszelkie prawa zastrzeżone.